createdAt,value
2024-01-22T00:01:36.723Z,101014.08
2024-01-22T00:05:02.864Z,101009.29
2024-01-22T00:08:29.008Z,101009.81
2024-01-22T00:11:55.268Z,101021.44
2024-01-22T00:15:21.316Z,101016.99
2024-01-22T00:18:48.261Z,101007.74
2024-01-22T00:22:14.139Z,100994.39
2024-01-22T00:25:40.337Z,100991.83
2024-01-22T00:29:06.368Z,100988.75
2024-01-22T00:32:32.622Z,100984.13
2024-01-22T00:35:59.143Z,100990.13
2024-01-22T00:39:25.882Z,100987.73
2024-01-22T00:42:57.118Z,100983.80
2024-01-22T00:46:23.522Z,100978.49
2024-01-22T00:49:49.901Z,100981.06
2024-01-22T00:53:16.002Z,100977.98
2024-01-22T00:56:42.273Z,100978.83
2024-01-22T01:00:12.456Z,100986.53
2024-01-22T01:03:38.435Z,100988.08
2024-01-22T01:07:04.108Z,100980.20
2024-01-22T01:10:29.951Z,100968.73
2024-01-22T01:13:56.223Z,100945.80
2024-01-22T01:17:24.456Z,100932.29
2024-01-22T01:20:50.552Z,100929.39
2024-01-22T01:24:18.411Z,100933.31
2024-01-22T01:27:44.313Z,100926.13
2024-01-22T01:31:10.311Z,100931.09
2024-01-22T01:34:36.501Z,100928.20
2024-01-22T01:38:02.370Z,100934.17
2024-01-22T01:41:28.506Z,100926.13
2024-01-22T01:44:55.476Z,100922.21
2024-01-22T01:48:21.709Z,100913.83
2024-01-22T01:51:48.147Z,100905.09
2024-01-22T01:55:14.783Z,100892.26
2024-01-22T01:58:41.116Z,100887.63
2024-01-22T02:02:07.855Z,100880.95
2024-01-22T02:05:33.976Z,100873.58
2024-01-22T02:09:00.339Z,100865.52
2024-01-22T02:12:26.566Z,100861.42
2024-01-22T02:15:52.287Z,100843.97
2024-01-22T02:19:19.094Z,100832.67
2024-01-22T02:22:45.480Z,100827.52
2024-01-22T02:26:12.546Z,100822.71
2024-01-22T02:29:38.485Z,100826.29
2024-01-22T02:33:05.509Z,100825.27
2024-01-22T02:36:31.411Z,100826.60
2024-01-22T02:39:57.923Z,100816.50
2024-01-22T02:43:24.526Z,100808.94
2024-01-22T02:46:50.597Z,100804.49
2024-01-22T02:50:16.788Z,100802.25
2024-01-22T02:53:43.031Z,100799.67
2024-01-22T02:57:11.576Z,100788.68
2024-01-22T03:00:38.034Z,100768.67
2024-01-22T03:04:04.146Z,100751.02
2024-01-22T03:07:31.123Z,100754.96
2024-01-22T03:10:58.298Z,100757.36
2024-01-22T03:14:24.046Z,100751.20
2024-01-22T03:17:50.278Z,100739.22
2024-01-22T03:21:17.191Z,100725.88
2024-01-22T03:24:47.740Z,100728.80
2024-01-22T03:28:13.810Z,100720.94
2024-01-22T03:31:40.078Z,100720.76
2024-01-22T03:35:06.639Z,100717.85
2024-01-22T03:38:32.266Z,100710.48
2024-01-22T03:41:58.035Z,100706.54
2024-01-22T03:45:25.814Z,100691.64
2024-01-22T03:48:52.142Z,100676.05
2024-01-22T03:52:18.037Z,100673.84
2024-01-22T03:55:44.472Z,100661.51
2024-01-22T03:59:12.038Z,100658.42
2024-01-22T04:02:38.109Z,100671.24
2024-01-22T04:06:05.354Z,100670.38
2024-01-22T04:09:31.362Z,100661.27
2024-01-22T04:12:58.269Z,100657.14
2024-01-22T04:16:24.347Z,100653.04
2024-01-22T04:19:50.932Z,100638.50
2024-01-22T04:23:16.913Z,100628.05
2024-01-22T04:26:42.432Z,100625.49
2024-01-22T04:30:10.164Z,100614.04
2024-01-22T04:33:37.149Z,100600.21
2024-01-22T04:37:02.805Z,100594.58
2024-01-22T04:40:29.079Z,100596.65
2024-01-22T04:43:54.834Z,100584.52
2024-01-22T04:47:21.044Z,100577.50
2024-01-22T04:50:47.455Z,100568.27
2024-01-22T04:54:14.101Z,100562.45
2024-01-22T04:57:39.869Z,100553.55
2024-01-22T05:01:06.002Z,100550.30
2024-01-22T05:04:31.994Z,100547.02
2024-01-22T05:07:57.860Z,100543.23
2024-01-22T05:11:23.722Z,100534.84
2024-01-22T05:14:49.850Z,100525.23
2024-01-22T05:18:16.831Z,100525.17
2024-01-22T05:21:42.907Z,100529.25
2024-01-22T05:25:11.719Z,100525.56
2024-01-22T05:28:38.239Z,100518.48
2024-01-22T05:32:03.963Z,100509.35
2024-01-22T05:35:29.885Z,100505.51
2024-01-22T05:38:56.051Z,100499.81
2024-01-22T05:42:21.988Z,100498.04
2024-01-22T05:45:48.290Z,100496.63
2024-01-22T05:49:14.190Z,100500.23
2024-01-22T05:52:40.553Z,100502.44
2024-01-22T05:56:07.993Z,100497.95
2024-01-22T05:59:34.304Z,100498.45
2024-01-22T06:03:02.267Z,100495.51
2024-01-22T06:06:28.879Z,100490.17
2024-01-22T06:10:01.775Z,100481.61
2024-01-22T06:13:34.521Z,100479.14
2024-01-22T06:17:05.455Z,100467.10
2024-01-22T06:20:36.218Z,100456.77
2024-01-22T06:24:03.772Z,100455.84
2024-01-22T06:27:30.249Z,100460.61
2024-01-22T06:30:56.401Z,100456.98
2024-01-22T06:34:25.367Z,100450.91
2024-01-22T06:37:51.812Z,100443.46
2024-01-22T06:41:20.630Z,100434.29
2024-01-22T06:44:46.533Z,100421.38
2024-01-22T06:48:13.666Z,100420.94
2024-01-22T06:51:45.969Z,100411.31
2024-01-22T06:55:14.362Z,100403.68
2024-01-22T06:58:40.456Z,100395.92
2024-01-22T07:02:07.547Z,100393.32
2024-01-22T07:05:34.744Z,100382.29
2024-01-22T07:09:01.248Z,100368.35
2024-01-22T07:12:31.803Z,100365.39
2024-01-22T07:15:58.426Z,100366.00
2024-01-22T07:19:24.770Z,100356.54
2024-01-22T07:22:51.422Z,100356.77
2024-01-22T07:26:17.617Z,100334.25
2024-01-22T07:29:43.817Z,100333.14
2024-01-22T07:33:10.148Z,100345.60
2024-01-22T07:36:36.224Z,100339.57
2024-01-22T07:40:02.813Z,100340.44
2024-01-22T07:43:29.041Z,100329.10
2024-01-22T07:46:57.524Z,100324.13
2024-01-22T07:50:23.656Z,100314.53
2024-01-22T07:53:49.697Z,100299.58
2024-01-22T07:57:16.308Z,100280.50
2024-01-22T08:00:42.640Z,100254.05
2024-01-22T08:04:09.129Z,100241.65
2024-01-22T08:07:37.944Z,100241.95
2024-01-22T08:11:06.997Z,100225.79
2024-01-22T08:14:34.573Z,100204.14
2024-01-22T08:18:00.569Z,100213.75
2024-01-22T08:21:26.485Z,100217.65
2024-01-22T08:24:53.579Z,100232.35
2024-01-22T08:28:19.706Z,100223.06
2024-01-22T08:31:46.252Z,100208.95
2024-01-22T08:35:12.919Z,100202.72
2024-01-22T08:38:39.162Z,100188.06
2024-01-22T08:42:05.205Z,100178.56
2024-01-22T08:45:38.056Z,100177.96
2024-01-22T08:49:04.490Z,100170.16
2024-01-22T08:52:30.422Z,100161.13
2024-01-22T08:55:59.151Z,100147.99
2024-01-22T08:59:25.362Z,100146.33
2024-01-22T09:02:52.594Z,100138.83
2024-01-22T09:06:19.728Z,100146.30
2024-01-22T09:09:46.245Z,100151.09
2024-01-22T09:13:15.765Z,100147.15
2024-01-22T09:16:42.075Z,100146.43
2024-01-22T09:20:10.370Z,100141.96
2024-01-22T09:23:39.687Z,100138.48
2024-01-22T09:27:06.732Z,100136.19
2024-01-22T09:30:35.364Z,100133.36
2024-01-22T09:34:01.330Z,100129.83
2024-01-22T09:37:27.659Z,100127.15
2024-01-22T09:40:54.599Z,100124.27
2024-01-22T09:44:21.314Z,100120.86
2024-01-22T09:47:49.919Z,100120.44
2024-01-22T09:51:17.161Z,100117.90
2024-01-22T09:54:43.656Z,100109.73
2024-01-22T09:58:16.050Z,100094.19
2024-01-22T10:01:43.402Z,100090.30
2024-01-22T10:05:11.160Z,100080.29
2024-01-22T10:08:37.503Z,100072.61
2024-01-22T10:12:04.187Z,100069.48
2024-01-22T10:15:31.043Z,100062.57
2024-01-22T10:19:05.913Z,100051.34
2024-01-22T10:22:31.870Z,100041.42
2024-01-22T10:26:10.826Z,100043.89
2024-01-22T10:29:36.829Z,100038.64
2024-01-22T10:33:13.669Z,100043.45
2024-01-22T10:36:39.396Z,100031.48
2024-01-22T10:40:10.997Z,100022.77
2024-01-22T10:43:39.769Z,100015.72
2024-01-22T10:47:06.950Z,100014.66
2024-01-22T10:50:34.269Z,100014.29
2024-01-22T10:54:00.571Z,100015.09
2024-01-22T10:57:39.025Z,100006.64
2024-01-22T11:01:11.435Z,99998.66
2024-01-22T11:04:45.617Z,99990.63
2024-01-22T11:08:14.108Z,99988.73
2024-01-22T11:11:44.529Z,99982.50
2024-01-22T11:15:12.059Z,99973.70
2024-01-22T11:18:39.076Z,99967.54
2024-01-22T11:22:10.410Z,99962.17
2024-01-22T11:25:36.845Z,99956.95
2024-01-22T11:29:15.310Z,99948.88
2024-01-22T11:32:45.012Z,99949.43
2024-01-22T11:36:12.213Z,99947.23
2024-01-22T11:39:48.642Z,99935.98
2024-01-22T11:43:15.613Z,99931.48
2024-01-22T11:46:42.097Z,99932.80
2024-01-22T11:50:09.493Z,99928.27
2024-01-22T11:53:52.325Z,99924.27
2024-01-22T11:57:20.259Z,99913.71
2024-01-22T12:00:46.117Z,99914.29
2024-01-22T12:07:43.643Z,99902.56
2024-01-22T12:11:15.337Z,99897.16
2024-01-22T12:14:41.350Z,99894.89
2024-01-22T12:18:09.008Z,99884.37
2024-01-22T12:21:35.124Z,99881.77
2024-01-22T12:25:11.649Z,99879.03
2024-01-22T12:28:37.880Z,99870.13
2024-01-22T12:32:07.514Z,99861.42
2024-01-22T12:35:33.679Z,99862.48
2024-01-22T12:39:03.119Z,99850.36
2024-01-22T12:42:29.068Z,99841.12
2024-01-22T12:46:06.959Z,99831.32
2024-01-22T12:49:33.805Z,99827.48
2024-01-22T12:53:00.278Z,99824.63
2024-01-22T12:56:26.577Z,99818.67
2024-01-22T12:59:52.971Z,99811.00
2024-01-22T13:03:19.880Z,99803.30
2024-01-22T13:06:47.377Z,99793.27
2024-01-22T13:10:14.381Z,99790.48
2024-01-22T13:13:40.460Z,99780.04
2024-01-22T13:17:09.804Z,99784.40
2024-01-22T13:20:37.167Z,99767.67
2024-01-22T13:24:03.263Z,99761.88
2024-01-22T13:27:29.468Z,99759.14
2024-01-22T13:30:56.048Z,99761.91
2024-01-22T13:34:22.345Z,99755.88
2024-01-22T13:37:48.873Z,99755.54
2024-01-22T13:41:15.735Z,99753.19
2024-01-22T13:44:41.541Z,99756.77
2024-01-22T13:48:11.607Z,99753.66
2024-01-22T13:51:38.197Z,99750.20
2024-01-22T13:55:05.026Z,99748.70
2024-01-22T13:58:32.422Z,99747.55
2024-01-22T14:01:59.589Z,99747.33
2024-01-22T14:05:26.340Z,99744.91
2024-01-22T14:08:51.963Z,99745.56
2024-01-22T14:12:18.047Z,99742.03
2024-01-22T14:15:45.122Z,99741.23
2024-01-22T14:19:11.748Z,99740.34
2024-01-22T14:22:40.177Z,99743.66
2024-01-22T14:26:09.088Z,99741.14
2024-01-22T14:29:35.286Z,99742.61
2024-01-22T14:33:01.762Z,99734.81
2024-01-22T14:36:27.921Z,99742.08
2024-01-22T14:39:54.207Z,99737.88
2024-01-22T14:43:20.206Z,99735.36
2024-01-22T14:46:48.105Z,99737.42
2024-01-22T14:50:16.782Z,99740.06
2024-01-22T14:53:42.952Z,99738.41
2024-01-22T14:57:09.929Z,99743.26
2024-01-22T15:00:36.634Z,99750.75
2024-01-22T15:04:04.828Z,99742.20
2024-01-22T15:07:30.526Z,99746.89
2024-01-22T15:10:56.362Z,99744.08
2024-01-22T15:14:23.666Z,99744.20
2024-01-22T15:17:49.887Z,99740.46
2024-01-22T15:21:16.396Z,99739.49
2024-01-22T15:24:42.733Z,99732.72
2024-01-22T15:28:09.949Z,99726.83
2024-01-22T15:31:38.502Z,99723.73
2024-01-22T15:35:07.234Z,99718.42
2024-01-22T15:38:34.626Z,99719.98
2024-01-22T15:42:02.243Z,99716.85
2024-01-22T15:45:28.677Z,99714.73
2024-01-22T15:48:55.282Z,99720.02
2024-01-22T15:52:21.718Z,99726.46
2024-01-22T15:55:47.962Z,99722.16
2024-01-22T15:59:15.221Z,99719.42
2024-01-22T16:02:41.299Z,99707.27
2024-01-22T16:06:07.915Z,99709.52
2024-01-22T16:09:34.596Z,99714.84
2024-01-22T16:13:01.756Z,99724.42
2024-01-22T16:16:28.131Z,99723.33
2024-01-22T16:19:54.114Z,99722.35
2024-01-22T16:23:20.167Z,99719.43
2024-01-22T16:26:46.773Z,99710.56
2024-01-22T16:30:15.506Z,99701.90
2024-01-22T16:33:42.108Z,99691.23
2024-01-22T16:37:11.181Z,99684.72
2024-01-22T16:40:37.525Z,99685.98
2024-01-22T16:44:04.270Z,99688.81
2024-01-22T16:47:30.456Z,99687.46
2024-01-22T16:50:56.747Z,99691.13
2024-01-22T16:54:22.703Z,99683.89
2024-01-22T16:57:49.642Z,99678.66
2024-01-22T17:01:17.576Z,99678.48
2024-01-22T17:04:43.710Z,99680.06
2024-01-22T17:08:10.540Z,99683.65
2024-01-22T17:11:36.814Z,99683.61
2024-01-22T17:15:02.948Z,99680.08
2024-01-22T17:18:28.968Z,99675.44
2024-01-22T17:21:54.996Z,99678.05
2024-01-22T17:25:21.333Z,99676.86
2024-01-22T17:28:49.109Z,99681.16
2024-01-22T17:32:15.293Z,99678.33
2024-01-22T17:35:41.029Z,99671.16
2024-01-22T17:39:08.058Z,99668.94
2024-01-22T17:42:34.146Z,99671.20
2024-01-22T17:46:00.304Z,99671.95
2024-01-22T17:49:27.037Z,99672.31
2024-01-22T17:52:53.058Z,99677.83
2024-01-22T17:56:19.115Z,99677.41
2024-01-22T17:59:45.719Z,99677.02
2024-01-22T18:03:12.417Z,99678.67
2024-01-22T18:06:38.230Z,99677.84
2024-01-22T18:10:05.493Z,99673.09
2024-01-22T18:13:31.643Z,99679.83
2024-01-22T18:16:57.215Z,99680.54
2024-01-22T18:20:23.346Z,99684.18
2024-01-22T18:23:49.510Z,99685.81
2024-01-22T18:27:15.378Z,99686.20
2024-01-22T18:30:41.989Z,99690.13
2024-01-22T18:34:08.303Z,99690.55
2024-01-22T18:37:35.043Z,99689.20
2024-01-22T18:41:00.865Z,99694.02
2024-01-22T18:44:26.582Z,99694.38
2024-01-22T18:47:53.039Z,99683.90
2024-01-22T18:51:18.936Z,99671.98
2024-01-22T18:54:45.331Z,99673.95
2024-01-22T18:58:11.476Z,99671.30
2024-01-22T19:01:37.555Z,99666.58
2024-01-22T19:05:05.708Z,99661.09
2024-01-22T19:08:32.117Z,99667.50
2024-01-22T19:11:58.542Z,99671.98
2024-01-22T19:15:24.710Z,99670.52
2024-01-22T19:18:51.218Z,99674.43
2024-01-22T19:22:18.038Z,99670.24
2024-01-22T19:25:44.678Z,99672.27
2024-01-22T19:29:10.711Z,99671.35
2024-01-22T19:32:37.310Z,99676.81
2024-01-22T19:36:03.435Z,99674.12
2024-01-22T19:39:29.557Z,99679.63
2024-01-22T19:42:56.109Z,99682.67
2024-01-22T19:46:21.798Z,99691.39
2024-01-22T19:49:47.958Z,99678.10
2024-01-22T19:53:14.322Z,99685.40
2024-01-22T19:56:46.576Z,99691.86
2024-01-22T20:00:14.891Z,99702.52
2024-01-22T20:03:40.963Z,99705.50
2024-01-22T20:07:11.174Z,99714.23
2024-01-22T20:10:37.421Z,99719.98
2024-01-22T20:14:03.381Z,99731.42
2024-01-22T20:17:29.488Z,99740.84
2024-01-22T20:20:55.923Z,99752.79
2024-01-22T20:24:22.151Z,99756.27
2024-01-22T20:27:47.988Z,99747.09
2024-01-22T20:31:13.771Z,99750.20
2024-01-22T20:34:40.082Z,99755.55
2024-01-22T20:38:07.045Z,99753.64
2024-01-22T20:41:33.119Z,99754.07
2024-01-22T20:44:59.231Z,99763.20
2024-01-22T20:48:26.059Z,99752.48
2024-01-22T20:51:52.273Z,99767.41
2024-01-22T20:55:23.497Z,99783.17
2024-01-22T20:58:49.648Z,99785.16
2024-01-22T21:02:19.161Z,99792.63
2024-01-22T21:05:45.543Z,99797.91
2024-01-22T21:09:13.398Z,99815.63
2024-01-22T21:12:40.075Z,99826.55
2024-01-22T21:16:06.943Z,99840.16
2024-01-22T21:19:34.157Z,99846.28
2024-01-22T21:23:00.741Z,99852.20
2024-01-22T21:26:27.278Z,99855.83
2024-01-22T21:29:53.328Z,99854.70
2024-01-22T21:33:22.358Z,99853.63
2024-01-22T21:36:50.190Z,99855.80
2024-01-22T21:40:17.994Z,99857.17
2024-01-22T21:43:44.399Z,99861.27
2024-01-22T21:47:11.172Z,99857.61
2024-01-22T21:50:37.279Z,99867.10
2024-01-22T21:54:03.031Z,99877.05
2024-01-22T21:57:30.508Z,99884.67
2024-01-22T22:00:56.948Z,99880.98
2024-01-22T22:04:22.900Z,99887.02
2024-01-22T22:07:50.419Z,99886.69
2024-01-22T22:11:16.898Z,99885.66
2024-01-22T22:14:43.583Z,99890.50
2024-01-22T22:18:11.010Z,99893.76
2024-01-22T22:21:48.762Z,99893.08
2024-01-22T22:25:15.107Z,99901.61
2024-01-22T22:28:41.021Z,99900.97
2024-01-22T22:32:12.548Z,99912.89
2024-01-22T22:35:42.743Z,99910.23
2024-01-22T22:39:15.329Z,99914.27
2024-01-22T22:42:42.251Z,99921.56
2024-01-22T22:46:10.119Z,99928.80
2024-01-22T22:49:37.545Z,99930.95
2024-01-22T22:53:04.035Z,99933.72
2024-01-22T22:56:30.374Z,99948.05
2024-01-22T22:59:59.888Z,99956.48
2024-01-22T23:03:27.049Z,99957.21
2024-01-22T23:06:53.652Z,99957.44
2024-01-22T23:10:19.740Z,99963.02
2024-01-22T23:13:46.137Z,99964.87
2024-01-22T23:17:12.328Z,99951.80
2024-01-22T23:20:38.129Z,99949.20
2024-01-22T23:24:04.611Z,99962.79
2024-01-22T23:27:32.143Z,99968.28
2024-01-22T23:31:00.710Z,99967.13
2024-01-22T23:34:29.123Z,99974.95
2024-01-22T23:38:00.134Z,99968.80
2024-01-22T23:41:26.223Z,99971.52
2024-01-22T23:44:54.553Z,99970.30
2024-01-22T23:48:22.833Z,99968.27
2024-01-22T23:51:49.165Z,99968.48
2024-01-22T23:55:16.155Z,99977.48
2024-01-22T23:58:42.013Z,99978.05
